Accueil
METAR-TAF:

METAR-TAF

Aéroports :

Aéroport international Léopold-Sédar-Senghor

Dakar, Sénégal

latitude: 14-44N, longitude: 017-30W, altitude: 27 m

Observation

Le bulletin a été fait il y a 51 minutes, à 23:00 UTC
Vent 2 kt de ouest/sud-ouest
Température 26°C
Humidité 94%
Pression 1016 hPa
Visibilité 10 km ou plus
Quelques nuages à une hauteur de 800 ft
Nuages fragmentés à une hauteur de 1300 ft

METAR: GOOY 032300Z 24002KT 9999 FEW008 BKN013 26/25 Q1016

Heure: 23:51 (23:51 UTC)

Prévision

Le bulletin a été fait il y a 21 minutes, à 23:30 UTC
Prévision valable du 04 à 00 UTC au 05 à 06 UTC
Vent 6 kt de ouest/sud-ouest
Visibilité 10 km ou plus
Nuages épars à une hauteur de 800 ft

TAF: GOOY 032330Z 0400/0506 25006KT 9999 SCT008

Observations et prévisions météorologiques de plus de 4000 aéroports (messages METAR et TAF).

Les stations disponibles sont représentées par des disques jaunes et rouges sur la carte.

Passer la souris dessus pour voir le nom de la station.

Cliquer dessus pour voir les observations et prévisions météorologiques.

Pour changer de carte: cliquez sur les boutons verts avec une croix noire pour zoomer, sur le bouton vert avec un tiret pour effectuer un zoom arrière, ou sur les flèches vertes pour les cartes adjacentes.


METAR-TAF: